createdAt,value
2022-12-20T00:01:58.858Z,9.34
2022-12-20T00:04:44.437Z,9.35
2022-12-20T00:07:29.908Z,9.26
2022-12-20T00:10:15.229Z,9.39
2022-12-20T00:13:00.564Z,9.42
2022-12-20T00:15:46.358Z,9.39
2022-12-20T00:18:31.999Z,9.43
2022-12-20T00:21:17.481Z,9.41
2022-12-20T00:24:03.391Z,9.37
2022-12-20T00:26:48.717Z,9.34
2022-12-20T00:29:34.048Z,9.40
2022-12-20T00:32:19.465Z,9.41
2022-12-20T00:35:05.677Z,9.50
2022-12-20T00:37:50.870Z,9.51
2022-12-20T00:40:36.351Z,9.47
2022-12-20T00:43:21.598Z,9.40
2022-12-20T00:46:08.552Z,9.39
2022-12-20T00:48:55.298Z,9.41
2022-12-20T00:51:40.998Z,9.42
2022-12-20T00:54:26.169Z,9.50
2022-12-20T00:57:11.651Z,9.64
2022-12-20T00:59:57.668Z,9.67
2022-12-20T01:02:43.104Z,9.70
2022-12-20T01:05:28.958Z,9.70
2022-12-20T01:08:14.237Z,9.86
2022-12-20T01:11:13.423Z,9.84
2022-12-20T01:14:08.429Z,9.97
2022-12-20T01:16:53.805Z,9.98
2022-12-20T01:19:40.303Z,10.08
2022-12-20T01:22:25.701Z,10.15
2022-12-20T01:25:11.080Z,10.15
2022-12-20T01:27:56.242Z,10.10
2022-12-20T01:30:42.140Z,10.01
2022-12-20T01:33:28.406Z,10.12
2022-12-20T01:36:19.915Z,10.20
2022-12-20T01:39:12.663Z,10.21
2022-12-20T01:41:57.906Z,10.21
2022-12-20T01:44:43.291Z,10.14
2022-12-20T01:47:33.746Z,10.28
2022-12-20T01:50:19.767Z,10.36
2022-12-20T01:53:06.058Z,10.35
2022-12-20T01:55:51.675Z,10.42
2022-12-20T01:58:38.772Z,10.36
2022-12-20T02:01:25.097Z,10.45
2022-12-20T02:04:10.798Z,10.49
2022-12-20T02:06:56.145Z,10.37
2022-12-20T02:09:42.271Z,10.42
2022-12-20T02:12:52.742Z,10.38
2022-12-20T02:15:38.289Z,10.28
2022-12-20T02:18:27.634Z,10.35
2022-12-20T02:21:24.434Z,10.34
2022-12-20T02:24:25.100Z,10.32
2022-12-20T02:27:52.121Z,10.24
2022-12-20T02:30:45.169Z,10.30
2022-12-20T02:33:30.575Z,10.22
2022-12-20T02:36:18.950Z,10.31
2022-12-20T02:39:04.464Z,10.44
2022-12-20T02:42:05.812Z,10.40
2022-12-20T02:45:03.926Z,10.45
2022-12-20T02:47:55.839Z,10.56
2022-12-20T02:50:53.318Z,10.50
2022-12-20T02:53:42.167Z,10.52
2022-12-20T02:57:02.559Z,10.53
2022-12-20T03:00:02.412Z,10.57
2022-12-20T03:02:49.283Z,10.53
2022-12-20T03:05:43.237Z,10.48
2022-12-20T03:08:28.607Z,10.51
2022-12-20T03:11:13.796Z,10.55
2022-12-20T03:13:59.189Z,10.55
2022-12-20T03:16:44.748Z,10.53
2022-12-20T03:19:30.695Z,10.53
2022-12-20T03:22:16.927Z,10.55
2022-12-20T03:25:02.475Z,10.50
2022-12-20T03:27:47.935Z,10.51
2022-12-20T03:30:33.619Z,10.63
2022-12-20T03:33:18.881Z,10.49
2022-12-20T03:36:04.475Z,10.55
2022-12-20T03:38:51.086Z,10.44
2022-12-20T03:41:37.252Z,10.53
2022-12-20T03:44:23.093Z,10.49
2022-12-20T03:47:08.846Z,10.52
2022-12-20T03:49:54.113Z,10.47
2022-12-20T03:52:39.284Z,10.46
2022-12-20T03:55:24.401Z,10.30
2022-12-20T03:58:10.054Z,10.27
2022-12-20T04:00:57.324Z,10.35
2022-12-20T04:03:42.650Z,10.34
2022-12-20T04:06:28.167Z,10.29
2022-12-20T04:09:14.255Z,10.25
2022-12-20T04:11:59.856Z,10.22
2022-12-20T04:14:45.470Z,10.18
2022-12-20T04:17:30.812Z,10.12
2022-12-20T04:20:17.570Z,10.00
2022-12-20T04:23:02.857Z,9.98
2022-12-20T04:25:48.245Z,9.92
2022-12-20T04:28:34.542Z,9.95
2022-12-20T04:31:24.090Z,9.86
2022-12-20T04:34:10.095Z,9.80
2022-12-20T04:36:55.416Z,9.76
2022-12-20T04:39:40.582Z,9.77
2022-12-20T04:42:26.210Z,9.77
2022-12-20T04:45:11.776Z,9.69
2022-12-20T04:47:57.368Z,9.66
2022-12-20T04:50:42.969Z,9.63
2022-12-20T04:53:28.500Z,9.57
2022-12-20T04:56:16.297Z,9.57
2022-12-20T04:59:01.824Z,9.57
2022-12-20T05:01:47.221Z,9.55
2022-12-20T05:04:37.363Z,9.52
2022-12-20T05:07:23.258Z,9.55
2022-12-20T05:10:09.168Z,9.53
2022-12-20T05:12:54.546Z,9.48
2022-12-20T05:15:39.836Z,9.48
2022-12-20T05:18:26.810Z,9.49
2022-12-20T05:21:12.103Z,9.50
2022-12-20T05:23:57.352Z,9.53
2022-12-20T05:26:42.616Z,9.55
2022-12-20T05:29:28.258Z,9.56
2022-12-20T05:32:13.551Z,9.59
2022-12-20T05:34:58.949Z,9.67
2022-12-20T05:37:44.242Z,9.62
2022-12-20T05:40:29.698Z,9.68
2022-12-20T05:43:15.896Z,9.70
2022-12-20T05:46:01.644Z,9.64
2022-12-20T05:48:46.972Z,9.58
2022-12-20T05:51:32.723Z,9.65
2022-12-20T05:54:18.137Z,9.59
2022-12-20T05:57:03.704Z,9.49
2022-12-20T05:59:49.300Z,9.44
2022-12-20T06:02:34.719Z,9.36
2022-12-20T06:05:20.528Z,9.31
2022-12-20T06:08:07.643Z,9.27
2022-12-20T06:10:53.655Z,9.25
2022-12-20T06:13:39.031Z,9.22
2022-12-20T06:16:24.283Z,9.17
2022-12-20T06:19:14.728Z,9.22
2022-12-20T06:22:06.170Z,9.20
2022-12-20T06:24:51.497Z,9.19
2022-12-20T06:27:37.221Z,9.21
2022-12-20T06:30:22.930Z,9.24
2022-12-20T06:33:08.541Z,9.28
2022-12-20T06:35:53.986Z,9.26
2022-12-20T06:38:39.175Z,9.30
2022-12-20T06:41:24.891Z,9.31
2022-12-20T06:44:10.483Z,9.32
2022-12-20T06:46:56.304Z,9.28
2022-12-20T06:49:41.692Z,9.29
2022-12-20T06:52:27.178Z,9.32
2022-12-20T06:55:12.409Z,9.34
2022-12-20T06:57:57.568Z,9.35
2022-12-20T07:00:43.127Z,9.26
2022-12-20T07:03:28.547Z,9.20
2022-12-20T07:06:14.038Z,9.20
2022-12-20T07:08:59.371Z,9.07
2022-12-20T07:11:44.616Z,9.09
2022-12-20T07:14:30.025Z,9.06
2022-12-20T07:17:15.503Z,8.98
2022-12-20T07:20:01.317Z,9.00
2022-12-20T07:22:49.953Z,8.96
2022-12-20T07:25:35.230Z,8.90
2022-12-20T07:28:21.195Z,8.90
2022-12-20T07:31:06.803Z,8.95
2022-12-20T07:33:55.364Z,8.94
2022-12-20T07:36:40.643Z,9.03
2022-12-20T07:39:26.170Z,9.04
2022-12-20T07:42:12.380Z,9.07
2022-12-20T07:51:25.200Z,9.24
2022-12-20T07:54:15.669Z,9.25
2022-12-20T07:57:12.728Z,9.20
2022-12-20T08:00:01.211Z,9.17
2022-12-20T08:02:52.929Z,9.17
2022-12-20T08:05:43.908Z,9.19
2022-12-20T08:08:32.814Z,9.28
2022-12-20T08:11:20.875Z,9.21
2022-12-20T08:14:07.671Z,9.20
2022-12-20T08:16:56.491Z,9.24
2022-12-20T08:19:41.902Z,9.23
2022-12-20T08:22:27.250Z,9.26
2022-12-20T08:25:12.887Z,9.20
2022-12-20T08:27:59.771Z,9.15
2022-12-20T08:30:51.426Z,9.08
2022-12-20T08:33:47.331Z,9.21
2022-12-20T08:36:32.975Z,9.20
2022-12-20T08:39:19.846Z,9.13
2022-12-20T08:42:05.664Z,9.07
2022-12-20T08:44:51.322Z,9.16
2022-12-20T08:47:36.852Z,9.10
2022-12-20T08:50:22.303Z,9.01
2022-12-20T08:53:07.495Z,8.87
2022-12-20T08:55:53.159Z,8.92
2022-12-20T08:58:39.680Z,8.78
2022-12-20T09:01:25.505Z,8.75
2022-12-20T09:04:11.931Z,8.69
2022-12-20T09:06:57.435Z,8.82
2022-12-20T09:09:42.897Z,8.78
2022-12-20T09:12:28.320Z,8.92
2022-12-20T09:15:13.464Z,9.00
2022-12-20T09:18:03.073Z,9.04
2022-12-20T09:20:49.830Z,9.20
2022-12-20T09:23:41.852Z,9.44
2022-12-20T09:26:33.902Z,9.71
2022-12-20T09:29:26.138Z,9.93
2022-12-20T09:32:19.971Z,10.19
2022-12-20T09:35:08.270Z,10.31
2022-12-20T09:37:59.656Z,10.50
2022-12-20T09:40:49.350Z,10.58
2022-12-20T09:43:35.618Z,10.63
2022-12-20T09:46:22.662Z,10.63
2022-12-20T09:49:15.292Z,10.67
2022-12-20T09:52:12.833Z,10.75
2022-12-20T09:55:08.608Z,10.76
2022-12-20T09:58:23.180Z,10.85
2022-12-20T10:01:23.054Z,10.79
2022-12-20T10:04:20.647Z,10.81
2022-12-20T10:07:05.597Z,10.81
2022-12-20T10:10:13.987Z,10.86
2022-12-20T10:13:34.451Z,10.86
2022-12-20T10:16:53.704Z,10.84
2022-12-20T10:20:16.290Z,10.87
2022-12-20T10:23:10.826Z,10.86
2022-12-20T10:25:57.617Z,10.87
2022-12-20T10:28:42.952Z,10.85
2022-12-20T10:31:28.669Z,10.88
2022-12-20T10:34:13.953Z,10.94
2022-12-20T10:37:12.086Z,10.89
2022-12-20T10:40:01.974Z,10.95
2022-12-20T10:42:50.699Z,10.96
2022-12-20T10:45:41.909Z,10.96
2022-12-20T10:48:37.416Z,10.98
2022-12-20T10:51:24.123Z,10.93
2022-12-20T10:54:23.489Z,11.00
2022-12-20T10:57:30.434Z,11.02
2022-12-20T11:00:28.862Z,11.00
2022-12-20T11:03:16.648Z,11.18
2022-12-20T11:06:03.913Z,11.20
2022-12-20T11:08:52.747Z,11.23
2022-12-20T11:11:59.685Z,11.30
2022-12-20T11:14:46.996Z,11.34
2022-12-20T11:17:37.868Z,11.29
2022-12-20T11:20:32.186Z,11.35
2022-12-20T11:23:32.926Z,11.35
2022-12-20T11:26:30.276Z,11.36
2022-12-20T11:29:37.316Z,11.36
2022-12-20T11:32:59.828Z,11.36
2022-12-20T11:35:59.302Z,11.42
2022-12-20T11:38:55.186Z,11.45
2022-12-20T11:41:54.811Z,11.46
2022-12-20T11:44:58.850Z,11.50
2022-12-20T11:48:26.482Z,11.55
2022-12-20T11:51:16.690Z,11.54
2022-12-20T11:54:36.023Z,11.58
2022-12-20T11:57:28.268Z,11.62
2022-12-20T12:00:14.720Z,11.66
2022-12-20T12:03:09.280Z,11.71
2022-12-20T12:06:03.667Z,11.76
2022-12-20T12:08:54.933Z,11.76
2022-12-20T12:12:07.774Z,11.71
2022-12-20T12:15:18.531Z,11.73
2022-12-20T12:18:17.245Z,11.73
2022-12-20T12:21:09.523Z,11.73
2022-12-20T12:24:18.761Z,11.70
2022-12-20T12:27:04.149Z,11.77
2022-12-20T12:29:49.654Z,11.77
2022-12-20T12:33:03.870Z,11.82
2022-12-20T12:36:52.282Z,11.85
2022-12-20T12:40:15.452Z,11.80
2022-12-20T12:43:40.588Z,11.93
2022-12-20T12:46:39.446Z,12.00
2022-12-20T12:49:31.115Z,12.00
2022-12-20T12:52:33.814Z,11.98
2022-12-20T12:55:37.043Z,11.98
2022-12-20T12:58:33.336Z,11.86
2022-12-20T13:01:54.057Z,11.68
2022-12-20T13:05:07.431Z,11.58
2022-12-20T13:07:53.914Z,11.51
2022-12-20T13:10:38.850Z,11.50
2022-12-20T13:13:25.127Z,11.51
2022-12-20T13:16:48.260Z,11.51
2022-12-20T13:19:37.257Z,11.60
2022-12-20T13:22:27.147Z,11.53
2022-12-20T13:25:37.293Z,11.69
2022-12-20T13:28:22.933Z,11.72
2022-12-20T13:31:08.505Z,11.61
2022-12-20T13:33:54.670Z,11.75
2022-12-20T13:36:40.095Z,11.77
2022-12-20T13:39:31.956Z,11.73
2022-12-20T13:42:29.303Z,11.74
2022-12-20T13:45:14.966Z,11.79
2022-12-20T13:48:11.125Z,11.80
2022-12-20T13:50:57.888Z,11.72
2022-12-20T13:53:55.438Z,11.78
2022-12-20T13:56:50.645Z,11.75
2022-12-20T13:59:35.689Z,11.81
2022-12-20T14:02:35.413Z,11.75
2022-12-20T14:05:26.372Z,11.65
2022-12-20T14:08:22.244Z,11.64
2022-12-20T14:11:12.490Z,11.62
2022-12-20T14:14:03.226Z,11.57
2022-12-20T14:16:48.531Z,11.48
2022-12-20T14:19:33.896Z,11.47
2022-12-20T14:22:19.414Z,11.47
2022-12-20T14:25:06.439Z,11.53
2022-12-20T14:27:51.823Z,11.54
2022-12-20T14:30:43.306Z,11.49
2022-12-20T14:33:46.835Z,11.39
2022-12-20T14:36:32.493Z,11.35
2022-12-20T14:39:34.491Z,11.32
2022-12-20T14:42:21.038Z,11.36
2022-12-20T14:45:20.667Z,11.25
2022-12-20T14:48:13.873Z,11.12
2022-12-20T14:51:04.940Z,11.10
2022-12-20T14:53:58.958Z,11.17
2022-12-20T14:56:49.114Z,11.15
2022-12-20T14:59:34.410Z,11.07
2022-12-20T15:03:15.738Z,10.91
2022-12-20T15:06:00.787Z,10.61
2022-12-20T15:08:51.988Z,10.35
2022-12-20T15:11:39.076Z,10.16
2022-12-20T15:14:30.332Z,10.13
2022-12-20T15:17:15.248Z,10.06
2022-12-20T15:20:00.755Z,9.93
2022-12-20T15:22:46.178Z,9.83
2022-12-20T15:25:42.775Z,9.79
2022-12-20T15:28:28.897Z,9.81
2022-12-20T15:31:17.916Z,9.76
2022-12-20T15:34:21.897Z,9.71
2022-12-20T15:37:17.987Z,9.71
2022-12-20T15:40:04.561Z,9.68
2022-12-20T15:42:51.358Z,9.68
2022-12-20T15:45:36.708Z,9.58
2022-12-20T15:48:23.405Z,9.61
2022-12-20T15:51:18.337Z,9.60
2022-12-20T15:54:07.531Z,9.59
2022-12-20T15:56:54.417Z,9.56
2022-12-20T16:03:00.229Z,9.57
2022-12-20T16:05:49.890Z,9.52
2022-12-20T16:08:35.137Z,9.49
2022-12-20T16:11:25.952Z,9.38
2022-12-20T16:14:17.455Z,9.36
2022-12-20T16:17:04.004Z,9.34
2022-12-20T16:19:49.172Z,9.22
2022-12-20T16:25:32.126Z,9.15
2022-12-20T16:28:17.590Z,9.19
2022-12-20T16:31:11.962Z,9.14
2022-12-20T16:33:59.056Z,9.07
2022-12-20T16:36:46.030Z,9.07
2022-12-20T16:39:31.342Z,9.04
2022-12-20T16:42:18.889Z,9.03
2022-12-20T16:45:04.151Z,9.01
2022-12-20T16:47:49.668Z,9.00
2022-12-20T16:50:36.375Z,9.05
2022-12-20T16:53:21.796Z,8.99
2022-12-20T16:56:14.353Z,8.99
2022-12-20T16:59:18.548Z,8.98
2022-12-20T17:02:22.450Z,8.93
2022-12-20T17:05:21.050Z,8.94
2022-12-20T17:11:30.565Z,8.93
2022-12-20T17:14:15.766Z,9.00
2022-12-20T17:17:03.450Z,8.95
2022-12-20T17:19:48.764Z,8.94
2022-12-20T17:22:34.232Z,8.95
2022-12-20T17:25:21.725Z,8.95
2022-12-20T17:28:06.799Z,8.94
2022-12-20T17:30:52.249Z,8.97
2022-12-20T17:33:37.103Z,9.02
2022-12-20T17:36:22.501Z,8.97
2022-12-20T17:39:07.944Z,9.02
2022-12-20T17:41:55.049Z,8.92
2022-12-20T17:44:40.266Z,9.01
2022-12-20T17:47:25.178Z,8.88
2022-12-20T17:50:10.863Z,8.94
2022-12-20T17:52:56.180Z,8.97
2022-12-20T17:55:41.331Z,8.98
2022-12-20T17:58:26.312Z,8.90
2022-12-20T18:01:20.223Z,8.86
2022-12-20T18:04:08.456Z,8.88
2022-12-20T18:06:53.725Z,8.88
2022-12-20T18:09:39.047Z,8.89
2022-12-20T18:12:23.966Z,8.87
2022-12-20T18:15:09.989Z,8.96
2022-12-20T18:17:55.333Z,8.88
2022-12-20T18:20:40.687Z,8.80
2022-12-20T18:23:26.320Z,8.86
2022-12-20T18:26:21.521Z,8.91
2022-12-20T18:29:06.462Z,8.98
2022-12-20T18:31:52.032Z,9.01
2022-12-20T18:34:37.227Z,9.06
2022-12-20T18:37:22.149Z,9.10
2022-12-20T18:40:07.919Z,9.06
2022-12-20T18:42:53.207Z,9.07
2022-12-20T18:45:38.699Z,9.06
2022-12-20T18:48:24.586Z,9.06
2022-12-20T18:51:15.879Z,9.12
2022-12-20T18:54:01.347Z,9.06
2022-12-20T18:56:46.611Z,9.15
2022-12-20T18:59:31.895Z,9.32
2022-12-20T19:02:17.217Z,9.31
2022-12-20T19:05:02.476Z,9.34
2022-12-20T19:07:47.884Z,9.25
2022-12-20T19:10:33.236Z,9.19
2022-12-20T19:13:19.514Z,9.38
2022-12-20T19:16:08.312Z,9.22
2022-12-20T19:18:53.609Z,9.25
2022-12-20T19:21:41.362Z,9.19
2022-12-20T19:24:26.542Z,9.25
2022-12-20T19:27:11.908Z,9.28
2022-12-20T19:29:57.349Z,9.33
2022-12-20T19:32:42.327Z,9.32
2022-12-20T19:35:54.976Z,9.25
2022-12-20T19:38:32.846Z,9.34
2022-12-20T19:41:19.930Z,9.39
2022-12-20T19:44:05.223Z,9.35
2022-12-20T19:46:50.122Z,9.36
2022-12-20T19:49:35.846Z,9.37
2022-12-20T19:52:28.060Z,9.45
2022-12-20T19:55:13.981Z,9.30
2022-12-20T19:57:59.121Z,9.20
2022-12-20T20:00:47.616Z,9.02
2022-12-20T20:03:33.648Z,9.10
2022-12-20T20:06:23.179Z,9.07
2022-12-20T20:09:08.346Z,9.09
2022-12-20T20:11:53.028Z,9.07
2022-12-20T20:14:37.951Z,9.03
2022-12-20T20:17:22.674Z,9.10
2022-12-20T20:20:08.133Z,9.19
2022-12-20T20:22:53.327Z,9.21
2022-12-20T20:25:47.657Z,9.25
2022-12-20T20:28:37.098Z,9.31
2022-12-20T20:31:25.270Z,9.32
2022-12-20T20:34:10.765Z,9.28
2022-12-20T20:39:37.119Z,9.22
2022-12-20T20:42:23.548Z,9.17
2022-12-20T20:45:09.403Z,9.16
2022-12-20T20:47:54.854Z,9.19
2022-12-20T20:50:40.499Z,9.19
2022-12-20T20:53:31.210Z,9.10
2022-12-20T20:56:18.863Z,9.13
2022-12-20T20:59:08.179Z,9.17
2022-12-20T21:01:56.125Z,9.20
2022-12-20T21:04:41.466Z,9.17
2022-12-20T21:07:26.346Z,9.15
2022-12-20T21:10:11.393Z,9.19
2022-12-20T21:12:56.528Z,9.22
2022-12-20T21:15:42.166Z,9.23
2022-12-20T21:18:27.375Z,9.23
2022-12-20T21:21:13.201Z,9.19
2022-12-20T21:23:59.690Z,9.21
2022-12-20T21:26:44.917Z,9.24
2022-12-20T21:29:29.917Z,9.19
2022-12-20T21:32:15.229Z,9.18
2022-12-20T21:35:00.099Z,9.14
2022-12-20T21:37:45.690Z,9.18
2022-12-20T21:40:30.818Z,9.14
2022-12-20T21:43:16.467Z,9.11
2022-12-20T21:46:02.036Z,9.09
2022-12-20T21:48:47.374Z,9.07
2022-12-20T21:51:32.774Z,9.07
2022-12-20T21:54:17.818Z,9.11
2022-12-20T21:57:03.078Z,9.10
2022-12-20T21:59:47.974Z,9.05
2022-12-20T22:02:32.804Z,8.99
2022-12-20T22:05:18.275Z,8.96
2022-12-20T22:08:03.134Z,8.95
2022-12-20T22:10:48.223Z,8.96
2022-12-20T22:13:40.729Z,8.94
2022-12-20T22:16:29.552Z,8.92
2022-12-20T22:19:14.523Z,9.02
2022-12-20T22:21:59.202Z,9.00
2022-12-20T22:24:44.138Z,8.96
2022-12-20T22:27:30.109Z,9.04
2022-12-20T22:30:15.562Z,9.02
2022-12-20T22:33:01.032Z,8.85
2022-12-20T22:35:46.455Z,8.79
2022-12-20T22:38:31.584Z,8.78
2022-12-20T22:41:37.016Z,8.78
2022-12-20T22:44:22.084Z,8.86
2022-12-20T22:47:07.604Z,8.90
2022-12-20T22:49:52.946Z,8.81
2022-12-20T22:52:38.133Z,8.90
2022-12-20T22:55:23.575Z,8.76
2022-12-20T22:58:08.410Z,8.80
2022-12-20T23:00:56.814Z,8.87
2022-12-20T23:03:42.623Z,8.84
2022-12-20T23:06:27.928Z,8.70
2022-12-20T23:09:12.979Z,8.77
2022-12-20T23:11:57.772Z,8.71
2022-12-20T23:14:42.773Z,8.74
2022-12-20T23:17:27.861Z,8.79
2022-12-20T23:20:12.942Z,8.73
2022-12-20T23:22:58.159Z,8.78
2022-12-20T23:25:43.057Z,8.82
2022-12-20T23:28:27.839Z,8.84
2022-12-20T23:31:12.610Z,8.85
2022-12-20T23:33:58.539Z,8.91
2022-12-20T23:36:43.713Z,8.90
2022-12-20T23:39:28.699Z,8.87
2022-12-20T23:42:13.977Z,8.78
2022-12-20T23:44:58.975Z,8.76
2022-12-20T23:47:44.221Z,8.72
2022-12-20T23:50:29.164Z,8.77
2022-12-20T23:53:14.124Z,8.78
2022-12-20T23:56:03.983Z,8.85
2022-12-20T23:58:54.094Z,8.89
